Main page
METAR-TAF:

METAR-TAF

Airports :

Stord Airport. Sørstokken

Stord, Norway

latitude: 59-48N, longitude: 005-21E, elevation: 49 m

Current weather observation

The report was made 35 minutes ago, at 16:50 UTC
Wind 19 kt from the Northwest with gusts up to 29 kt
Temperature 17°C
Humidity 72%
Pressure 1015 hPa
Visibility 10 km or more
no clouds below 1500 m and no cumulonimbus

METAR: ENSO 231650Z 32019G29KT CAVOK 17/12 Q1015

Time: 19:25 (17:25 UTC)

Forecast

The report was made 6 hours and 25 minutes ago, at 11:00 UTC
Forecast valid from 23 at 12 UTC to 23 at 18 UTC
Wind 8 kt from the Northwest
Visibility 10 km or more
Few clouds at a height of 2500 ft
Becoming
from 23 at 12 UTC to 23 at 14 UTC
Wind 18 kt from the Northwest
Temporary
from 23 at 14 UTC to 23 at 18 UTC
Wind 18 kt from the Northwest with gusts up to 28 kt

TAF: ENSO 231100Z 2312/2318 32008KT 9999 FEW025 BECMG 2312/2314 32018KT TEMPO 2314/2318 32018G28KT

Weather observations and forecasts of more than 4000 airports (METAR and TAF reports).

The available stations are represented by yellow and red dots on the map.

Hover mouse over dot to see the name of the station.

Then click to see weather observations and forecasts.

To change the map : click on the green buttons with a black cross to zoom in, on the green button with a dash to zoom out, or on the green arrows for adjacent maps.


METAR-TAF: